sensor_id;sensor_type;location;lat;lon;timestamp;temperature;humidity
30999;DHT22;20549;50.042;8.968;2023-05-07T00:00:25;18.70;62.30
30999;DHT22;20549;50.042;8.968;2023-05-07T00:02:52;18.70;62.40
30999;DHT22;20549;50.042;8.968;2023-05-07T00:05:19;18.60;62.40
30999;DHT22;20549;50.042;8.968;2023-05-07T00:07:46;18.60;62.50
30999;DHT22;20549;50.042;8.968;2023-05-07T00:10:12;18.60;62.60
30999;DHT22;20549;50.042;8.968;2023-05-07T00:12:40;18.60;62.70
30999;DHT22;20549;50.042;8.968;2023-05-07T00:15:05;18.50;62.80
30999;DHT22;20549;50.042;8.968;2023-05-07T00:17:32;18.60;63.00
30999;DHT22;20549;50.042;8.968;2023-05-07T00:19:58;18.50;63.00
30999;DHT22;20549;50.042;8.968;2023-05-07T00:22:25;18.50;63.10
30999;DHT22;20549;50.042;8.968;2023-05-07T00:24:51;18.50;63.20
30999;DHT22;20549;50.042;8.968;2023-05-07T00:27:18;18.50;63.30
30999;DHT22;20549;50.042;8.968;2023-05-07T00:29:45;18.50;63.40
30999;DHT22;20549;50.042;8.968;2023-05-07T00:32:11;18.50;63.50
30999;DHT22;20549;50.042;8.968;2023-05-07T00:34:38;18.50;63.50
30999;DHT22;20549;50.042;8.968;2023-05-07T00:37:04;18.50;63.50
30999;DHT22;20549;50.042;8.968;2023-05-07T00:39:31;18.50;63.70
30999;DHT22;20549;50.042;8.968;2023-05-07T00:41:58;18.40;63.70
30999;DHT22;20549;50.042;8.968;2023-05-07T00:44:24;18.40;63.80
30999;DHT22;20549;50.042;8.968;2023-05-07T00:46:51;18.40;63.90
30999;DHT22;20549;50.042;8.968;2023-05-07T00:49:17;18.40;63.90
30999;DHT22;20549;50.042;8.968;2023-05-07T00:51:44;18.30;64.80
30999;DHT22;20549;50.042;8.968;2023-05-07T00:54:11;18.40;64.20
30999;DHT22;20549;50.042;8.968;2023-05-07T00:56:37;18.30;64.30
30999;DHT22;20549;50.042;8.968;2023-05-07T00:59:04;18.30;64.30
30999;DHT22;20549;50.042;8.968;2023-05-07T01:01:31;18.30;64.30
30999;DHT22;20549;50.042;8.968;2023-05-07T01:03:57;18.30;64.50
30999;DHT22;20549;50.042;8.968;2023-05-07T01:06:24;18.20;64.30
30999;DHT22;20549;50.042;8.968;2023-05-07T01:08:50;18.20;64.40
30999;DHT22;20549;50.042;8.968;2023-05-07T01:11:17;18.20;64.50
30999;DHT22;20549;50.042;8.968;2023-05-07T01:13:43;18.20;64.60
30999;DHT22;20549;50.042;8.968;2023-05-07T01:16:10;18.20;64.60
30999;DHT22;20549;50.042;8.968;2023-05-07T01:18:36;18.20;64.70
30999;DHT22;20549;50.042;8.968;2023-05-07T01:21:04;18.10;64.80
30999;DHT22;20549;50.042;8.968;2023-05-07T01:23:30;18.10;65.00
30999;DHT22;20549;50.042;8.968;2023-05-07T01:25:56;18.10;65.10
30999;DHT22;20549;50.042;8.968;2023-05-07T01:28:23;18.00;65.10
30999;DHT22;20549;50.042;8.968;2023-05-07T01:30:54;18.00;65.20
30999;DHT22;20549;50.042;8.968;2023-05-07T01:33:17;18.00;65.30
30999;DHT22;20549;50.042;8.968;2023-05-07T01:35:43;18.00;65.40
30999;DHT22;20549;50.042;8.968;2023-05-07T01:38:09;17.90;65.50
30999;DHT22;20549;50.042;8.968;2023-05-07T01:40:36;17.90;65.60
30999;DHT22;20549;50.042;8.968;2023-05-07T01:43:02;17.90;65.70
30999;DHT22;20549;50.042;8.968;2023-05-07T01:45:30;17.90;65.90
30999;DHT22;20549;50.042;8.968;2023-05-07T01:47:55;17.90;66.00
30999;DHT22;20549;50.042;8.968;2023-05-07T01:50:22;17.90;65.40
30999;DHT22;20549;50.042;8.968;2023-05-07T01:52:50;17.80;66.30
30999;DHT22;20549;50.042;8.968;2023-05-07T01:55:15;17.80;66.40
30999;DHT22;20549;50.042;8.968;2023-05-07T01:57:42;17.80;66.40
30999;DHT22;20549;50.042;8.968;2023-05-07T02:00:08;17.80;66.50
30999;DHT22;20549;50.042;8.968;2023-05-07T02:02:35;17.80;66.60
30999;DHT22;20549;50.042;8.968;2023-05-07T02:05:02;17.80;66.60
30999;DHT22;20549;50.042;8.968;2023-05-07T02:07:28;17.80;66.50
30999;DHT22;20549;50.042;8.968;2023-05-07T02:09:55;17.80;66.50
30999;DHT22;20549;50.042;8.968;2023-05-07T02:12:22;17.80;66.50
30999;DHT22;20549;50.042;8.968;2023-05-07T02:14:48;17.80;66.50
30999;DHT22;20549;50.042;8.968;2023-05-07T02:17:15;17.80;66.40
30999;DHT22;20549;50.042;8.968;2023-05-07T02:19:41;17.80;66.40
30999;DHT22;20549;50.042;8.968;2023-05-07T02:22:09;17.80;67.30
30999;DHT22;20549;50.042;8.968;2023-05-07T02:24:34;17.80;66.50
30999;DHT22;20549;50.042;8.968;2023-05-07T02:27:01;17.70;66.40
30999;DHT22;20549;50.042;8.968;2023-05-07T02:29:27;17.70;66.40
30999;DHT22;20549;50.042;8.968;2023-05-07T02:31:54;17.70;66.40
30999;DHT22;20549;50.042;8.968;2023-05-07T02:34:21;17.70;66.40
30999;DHT22;20549;50.042;8.968;2023-05-07T02:36:47;17.70;66.40
30999;DHT22;20549;50.042;8.968;2023-05-07T02:39:14;17.60;66.40
30999;DHT22;20549;50.042;8.968;2023-05-07T02:41:40;17.60;66.50
30999;DHT22;20549;50.042;8.968;2023-05-07T02:44:07;17.60;66.70
30999;DHT22;20549;50.042;8.968;2023-05-07T02:46:34;17.50;66.70
30999;DHT22;20549;50.042;8.968;2023-05-07T02:49:00;17.50;66.90
30999;DHT22;20549;50.042;8.968;2023-05-07T02:51:27;17.50;67.10
30999;DHT22;20549;50.042;8.968;2023-05-07T02:53:53;17.50;67.10
30999;DHT22;20549;50.042;8.968;2023-05-07T02:56:20;17.50;67.10
30999;DHT22;20549;50.042;8.968;2023-05-07T02:58:47;17.40;67.10
30999;DHT22;20549;50.042;8.968;2023-05-07T03:01:13;17.50;67.30
30999;DHT22;20549;50.042;8.968;2023-05-07T03:03:40;17.50;67.40
30999;DHT22;20549;50.042;8.968;2023-05-07T03:06:06;17.40;67.30
30999;DHT22;20549;50.042;8.968;2023-05-07T03:08:33;17.40;67.40
30999;DHT22;20549;50.042;8.968;2023-05-07T03:10:59;17.40;67.40
30999;DHT22;20549;50.042;8.968;2023-05-07T03:13:26;17.40;67.50
30999;DHT22;20549;50.042;8.968;2023-05-07T03:15:53;17.40;67.60
30999;DHT22;20549;50.042;8.968;2023-05-07T03:18:19;17.40;67.70
30999;DHT22;20549;50.042;8.968;2023-05-07T03:20:47;17.40;67.70
30999;DHT22;20549;50.042;8.968;2023-05-07T03:23:12;17.40;67.80
30999;DHT22;20549;50.042;8.968;2023-05-07T03:25:39;17.30;68.20
30999;DHT22;20549;50.042;8.968;2023-05-07T03:28:06;17.40;68.00
30999;DHT22;20549;50.042;8.968;2023-05-07T03:30:32;17.30;68.20
30999;DHT22;20549;50.042;8.968;2023-05-07T03:32:59;17.40;68.30
30999;DHT22;20549;50.042;8.968;2023-05-07T03:35:25;17.30;68.30
30999;DHT22;20549;50.042;8.968;2023-05-07T03:37:52;17.30;68.50
30999;DHT22;20549;50.042;8.968;2023-05-07T03:40:19;17.30;68.50
30999;DHT22;20549;50.042;8.968;2023-05-07T03:42:45;17.30;68.60
30999;DHT22;20549;50.042;8.968;2023-05-07T03:45:12;17.30;68.60
30999;DHT22;20549;50.042;8.968;2023-05-07T03:47:38;17.30;68.70
30999;DHT22;20549;50.042;8.968;2023-05-07T03:50:05;17.30;68.80
30999;DHT22;20549;50.042;8.968;2023-05-07T03:52:32;17.30;68.90
30999;DHT22;20549;50.042;8.968;2023-05-07T03:54:58;17.30;68.90
30999;DHT22;20549;50.042;8.968;2023-05-07T03:57:25;17.20;69.10
30999;DHT22;20549;50.042;8.968;2023-05-07T03:59:51;17.30;69.00
30999;DHT22;20549;50.042;8.968;2023-05-07T04:02:18;17.30;68.90
30999;DHT22;20549;50.042;8.968;2023-05-07T04:04:44;17.30;68.90
30999;DHT22;20549;50.042;8.968;2023-05-07T04:07:11;17.30;68.90
30999;DHT22;20549;50.042;8.968;2023-05-07T04:09:38;17.30;68.90
30999;DHT22;20549;50.042;8.968;2023-05-07T04:12:04;17.30;68.90
30999;DHT22;20549;50.042;8.968;2023-05-07T04:14:31;17.30;68.90
30999;DHT22;20549;50.042;8.968;2023-05-07T04:16:58;17.30;68.90
30999;DHT22;20549;50.042;8.968;2023-05-07T04:19:24;17.30;68.90
30999;DHT22;20549;50.042;8.968;2023-05-07T04:21:51;17.30;68.80
30999;DHT22;20549;50.042;8.968;2023-05-07T04:24:17;17.40;68.90
30999;DHT22;20549;50.042;8.968;2023-05-07T04:26:44;17.40;68.90
30999;DHT22;20549;50.042;8.968;2023-05-07T04:29:10;17.40;68.90
30999;DHT22;20549;50.042;8.968;2023-05-07T04:31:37;17.40;68.80
30999;DHT22;20549;50.042;8.968;2023-05-07T04:34:04;17.40;68.90
30999;DHT22;20549;50.042;8.968;2023-05-07T04:36:30;17.40;68.80
30999;DHT22;20549;50.042;8.968;2023-05-07T04:38:57;17.50;68.80
30999;DHT22;20549;50.042;8.968;2023-05-07T04:41:23;17.50;68.80
30999;DHT22;20549;50.042;8.968;2023-05-07T04:43:50;17.60;68.70
30999;DHT22;20549;50.042;8.968;2023-05-07T04:46:16;17.60;68.60
30999;DHT22;20549;50.042;8.968;2023-05-07T04:48:43;17.60;68.60
30999;DHT22;20549;50.042;8.968;2023-05-07T04:51:10;17.70;68.60
30999;DHT22;20549;50.042;8.968;2023-05-07T04:53:37;17.70;68.60
30999;DHT22;20549;50.042;8.968;2023-05-07T04:56:03;17.70;68.60
30999;DHT22;20549;50.042;8.968;2023-05-07T04:58:29;17.80;68.70
30999;DHT22;20549;50.042;8.968;2023-05-07T05:00:56;17.80;68.60
30999;DHT22;20549;50.042;8.968;2023-05-07T05:03:23;17.90;68.60
30999;DHT22;20549;50.042;8.968;2023-05-07T05:05:50;17.90;68.50
30999;DHT22;20549;50.042;8.968;2023-05-07T05:08:16;18.00;68.40
30999;DHT22;20549;50.042;8.968;2023-05-07T05:10:42;18.00;67.40
30999;DHT22;20549;50.042;8.968;2023-05-07T05:13:09;18.10;68.20
30999;DHT22;20549;50.042;8.968;2023-05-07T05:15:36;18.10;68.10
30999;DHT22;20549;50.042;8.968;2023-05-07T05:18:02;18.20;68.00
30999;DHT22;20549;50.042;8.968;2023-05-07T05:20:29;18.30;68.00
30999;DHT22;20549;50.042;8.968;2023-05-07T05:22:55;18.30;67.90
30999;DHT22;20549;50.042;8.968;2023-05-07T05:25:22;18.40;67.90
30999;DHT22;20549;50.042;8.968;2023-05-07T05:27:48;18.50;67.90
30999;DHT22;20549;50.042;8.968;2023-05-07T05:30:15;18.60;67.80
30999;DHT22;20549;50.042;8.968;2023-05-07T05:32:42;18.70;67.60
30999;DHT22;20549;50.042;8.968;2023-05-07T05:35:08;18.80;67.60
30999;DHT22;20549;50.042;8.968;2023-05-07T05:37:35;18.90;67.40
30999;DHT22;20549;50.042;8.968;2023-05-07T05:40:01;19.00;67.10
30999;DHT22;20549;50.042;8.968;2023-05-07T05:42:28;19.10;67.10
30999;DHT22;20549;50.042;8.968;2023-05-07T05:44:55;19.30;66.70
30999;DHT22;20549;50.042;8.968;2023-05-07T05:47:22;19.30;66.40
30999;DHT22;20549;50.042;8.968;2023-05-07T05:49:48;19.40;66.20
30999;DHT22;20549;50.042;8.968;2023-05-07T05:52:14;19.50;66.00
30999;DHT22;20549;50.042;8.968;2023-05-07T05:54:41;19.50;65.80
30999;DHT22;20549;50.042;8.968;2023-05-07T05:57:08;19.60;65.80
30999;DHT22;20549;50.042;8.968;2023-05-07T05:59:34;19.60;65.70
30999;DHT22;20549;50.042;8.968;2023-05-07T06:02:01;19.70;65.60
30999;DHT22;20549;50.042;8.968;2023-05-07T06:04:27;19.80;65.50
30999;DHT22;20549;50.042;8.968;2023-05-07T06:06:54;19.70;65.50
30999;DHT22;20549;50.042;8.968;2023-05-07T06:09:20;19.80;65.50
30999;DHT22;20549;50.042;8.968;2023-05-07T06:11:47;19.90;65.50
30999;DHT22;20549;50.042;8.968;2023-05-07T06:14:14;19.90;65.50
30999;DHT22;20549;50.042;8.968;2023-05-07T06:16:40;20.00;65.30
30999;DHT22;20549;50.042;8.968;2023-05-07T06:19:07;20.00;65.10
30999;DHT22;20549;50.042;8.968;2023-05-07T06:21:33;20.00;65.00
30999;DHT22;20549;50.042;8.968;2023-05-07T06:24:00;20.10;64.90
30999;DHT22;20549;50.042;8.968;2023-05-07T06:26:27;20.10;64.60
30999;DHT22;20549;50.042;8.968;2023-05-07T06:28:53;20.10;64.40
30999;DHT22;20549;50.042;8.968;2023-05-07T06:31:20;20.20;64.40
30999;DHT22;20549;50.042;8.968;2023-05-07T06:33:46;20.20;64.20
30999;DHT22;20549;50.042;8.968;2023-05-07T06:36:13;20.20;64.10
30999;DHT22;20549;50.042;8.968;2023-05-07T06:38:40;20.30;64.10
30999;DHT22;20549;50.042;8.968;2023-05-07T06:41:06;20.30;64.00
30999;DHT22;20549;50.042;8.968;2023-05-07T06:43:33;20.40;64.10
30999;DHT22;20549;50.042;8.968;2023-05-07T06:45:59;20.50;64.30
30999;DHT22;20549;50.042;8.968;2023-05-07T06:48:26;20.60;64.40
30999;DHT22;20549;50.042;8.968;2023-05-07T06:50:52;20.70;64.30
30999;DHT22;20549;50.042;8.968;2023-05-07T06:53:19;20.90;64.20
30999;DHT22;20549;50.042;8.968;2023-05-07T06:55:46;21.00;64.00
30999;DHT22;20549;50.042;8.968;2023-05-07T06:58:12;21.20;63.80
30999;DHT22;20549;50.042;8.968;2023-05-07T07:00:39;21.40;63.60
30999;DHT22;20549;50.042;8.968;2023-05-07T07:03:06;21.60;63.50
30999;DHT22;20549;50.042;8.968;2023-05-07T07:05:32;21.80;63.20
30999;DHT22;20549;50.042;8.968;2023-05-07T07:07:59;22.00;62.70
30999;DHT22;20549;50.042;8.968;2023-05-07T07:10:25;22.20;62.30
30999;DHT22;20549;50.042;8.968;2023-05-07T07:12:52;22.40;62.10
30999;DHT22;20549;50.042;8.968;2023-05-07T07:15:19;22.70;62.20
30999;DHT22;20549;50.042;8.968;2023-05-07T07:17:45;23.00;62.20
30999;DHT22;20549;50.042;8.968;2023-05-07T07:20:12;23.30;61.70
30999;DHT22;20549;50.042;8.968;2023-05-07T07:22:38;23.70;61.30
30999;DHT22;20549;50.042;8.968;2023-05-07T07:25:05;24.10;60.40
30999;DHT22;20549;50.042;8.968;2023-05-07T07:27:31;24.30;59.50
30999;DHT22;20549;50.042;8.968;2023-05-07T07:29:58;24.50;59.00
30999;DHT22;20549;50.042;8.968;2023-05-07T07:32:25;24.70;58.50
30999;DHT22;20549;50.042;8.968;2023-05-07T07:34:51;24.80;57.90
30999;DHT22;20549;50.042;8.968;2023-05-07T07:37:18;24.90;57.50
30999;DHT22;20549;50.042;8.968;2023-05-07T07:39:44;24.90;57.10
30999;DHT22;20549;50.042;8.968;2023-05-07T07:42:11;25.00;57.00
30999;DHT22;20549;50.042;8.968;2023-05-07T07:44:37;25.10;57.10
30999;DHT22;20549;50.042;8.968;2023-05-07T07:47:04;25.10;57.20
30999;DHT22;20549;50.042;8.968;2023-05-07T07:49:31;25.30;57.20
30999;DHT22;20549;50.042;8.968;2023-05-07T07:51:57;25.40;56.90
30999;DHT22;20549;50.042;8.968;2023-05-07T07:54:24;25.50;56.40
30999;DHT22;20549;50.042;8.968;2023-05-07T07:56:50;25.70;56.20
30999;DHT22;20549;50.042;8.968;2023-05-07T07:59:17;25.80;56.70
30999;DHT22;20549;50.042;8.968;2023-05-07T08:01:44;26.00;56.00
30999;DHT22;20549;50.042;8.968;2023-05-07T08:04:10;26.10;55.60
30999;DHT22;20549;50.042;8.968;2023-05-07T08:06:37;26.20;55.30
30999;DHT22;20549;50.042;8.968;2023-05-07T08:09:03;26.30;55.00
30999;DHT22;20549;50.042;8.968;2023-05-07T08:11:30;26.40;54.70
30999;DHT22;20549;50.042;8.968;2023-05-07T08:13:57;26.40;54.50
30999;DHT22;20549;50.042;8.968;2023-05-07T08:16:23;26.50;54.30
30999;DHT22;20549;50.042;8.968;2023-05-07T08:18:50;26.50;54.10
30999;DHT22;20549;50.042;8.968;2023-05-07T08:21:16;26.60;53.80
30999;DHT22;20549;50.042;8.968;2023-05-07T08:23:43;26.60;53.70
30999;DHT22;20549;50.042;8.968;2023-05-07T08:26:10;26.60;54.20
30999;DHT22;20549;50.042;8.968;2023-05-07T08:28:36;26.70;53.50
30999;DHT22;20549;50.042;8.968;2023-05-07T08:31:03;26.70;53.40
30999;DHT22;20549;50.042;8.968;2023-05-07T08:33:29;26.70;53.20
30999;DHT22;20549;50.042;8.968;2023-05-07T08:35:56;26.80;53.00
30999;DHT22;20549;50.042;8.968;2023-05-07T08:38:22;26.80;52.90
30999;DHT22;20549;50.042;8.968;2023-05-07T08:40:49;26.90;52.90
30999;DHT22;20549;50.042;8.968;2023-05-07T08:43:16;26.90;52.80
30999;DHT22;20549;50.042;8.968;2023-05-07T08:45:42;27.00;52.80
30999;DHT22;20549;50.042;8.968;2023-05-07T08:48:10;27.10;52.70
30999;DHT22;20549;50.042;8.968;2023-05-07T08:50:36;27.30;52.70
30999;DHT22;20549;50.042;8.968;2023-05-07T08:53:05;27.40;53.10
30999;DHT22;20549;50.042;8.968;2023-05-07T08:55:31;27.60;52.30
30999;DHT22;20549;50.042;8.968;2023-05-07T08:57:58;27.80;52.20
30999;DHT22;20549;50.042;8.968;2023-05-07T09:00:24;27.90;52.10
30999;DHT22;20549;50.042;8.968;2023-05-07T09:02:52;28.10;52.10
30999;DHT22;20549;50.042;8.968;2023-05-07T09:05:18;28.30;51.90
30999;DHT22;20549;50.042;8.968;2023-05-07T09:07:44;28.40;50.70
30999;DHT22;20549;50.042;8.968;2023-05-07T09:10:11;28.60;51.20
30999;DHT22;20549;50.042;8.968;2023-05-07T09:12:37;28.70;51.00
30999;DHT22;20549;50.042;8.968;2023-05-07T09:15:04;28.90;50.60
30999;DHT22;20549;50.042;8.968;2023-05-07T09:17:31;29.00;50.30
30999;DHT22;20549;50.042;8.968;2023-05-07T09:20:07;29.10;50.20
30999;DHT22;20549;50.042;8.968;2023-05-07T09:22:24;29.20;50.00
30999;DHT22;20549;50.042;8.968;2023-05-07T09:24:51;29.40;49.80
30999;DHT22;20549;50.042;8.968;2023-05-07T09:27:17;29.60;49.80
30999;DHT22;20549;50.042;8.968;2023-05-07T09:29:44;29.70;49.60
30999;DHT22;20549;50.042;8.968;2023-05-07T09:32:10;30.00;49.70
30999;DHT22;20549;50.042;8.968;2023-05-07T09:34:37;30.20;50.10
30999;DHT22;20549;50.042;8.968;2023-05-07T09:37:04;30.40;49.10
30999;DHT22;20549;50.042;8.968;2023-05-07T09:39:43;30.60;48.60
30999;DHT22;20549;50.042;8.968;2023-05-07T09:42:09;30.80;48.20
30999;DHT22;20549;50.042;8.968;2023-05-07T09:44:35;31.00;47.90
30999;DHT22;20549;50.042;8.968;2023-05-07T09:47:02;31.10;47.40
30999;DHT22;20549;50.042;8.968;2023-05-07T09:49:29;31.10;47.10
30999;DHT22;20549;50.042;8.968;2023-05-07T09:51:55;31.20;47.00
30999;DHT22;20549;50.042;8.968;2023-05-07T09:54:22;31.20;47.20
30999;DHT22;20549;50.042;8.968;2023-05-07T09:56:48;31.30;47.10
30999;DHT22;20549;50.042;8.968;2023-05-07T09:59:15;31.40;47.00
30999;DHT22;20549;50.042;8.968;2023-05-07T10:01:42;31.50;46.60
30999;DHT22;20549;50.042;8.968;2023-05-07T10:04:08;31.70;46.20
30999;DHT22;20549;50.042;8.968;2023-05-07T10:06:35;31.80;45.90
30999;DHT22;20549;50.042;8.968;2023-05-07T10:09:02;31.80;45.80
30999;DHT22;20549;50.042;8.968;2023-05-07T10:11:28;31.80;45.70
30999;DHT22;20549;50.042;8.968;2023-05-07T10:13:54;31.80;45.40
30999;DHT22;20549;50.042;8.968;2023-05-07T10:16:21;31.80;45.10
30999;DHT22;20549;50.042;8.968;2023-05-07T10:18:47;31.80;44.90
30999;DHT22;20549;50.042;8.968;2023-05-07T10:21:17;31.80;44.50
30999;DHT22;20549;50.042;8.968;2023-05-07T10:23:49;31.70;44.20
30999;DHT22;20549;50.042;8.968;2023-05-07T10:26:16;31.60;44.20
30999;DHT22;20549;50.042;8.968;2023-05-07T10:28:44;31.50;44.30
30999;DHT22;20549;50.042;8.968;2023-05-07T10:33:38;31.20;44.30
30999;DHT22;20549;50.042;8.968;2023-05-07T10:36:05;31.00;44.00
30999;DHT22;20549;50.042;8.968;2023-05-07T10:38:31;30.90;43.80
30999;DHT22;20549;50.042;8.968;2023-05-07T10:40:58;30.70;44.00
30999;DHT22;20549;50.042;8.968;2023-05-07T10:43:24;30.50;44.10
30999;DHT22;20549;50.042;8.968;2023-05-07T10:46:16;30.40;44.20
30999;DHT22;20549;50.042;8.968;2023-05-07T10:51:27;30.10;44.60
30999;DHT22;20549;50.042;8.968;2023-05-07T10:56:38;29.90;45.10
30999;DHT22;20549;50.042;8.968;2023-05-07T11:01:50;29.80;45.10
30999;DHT22;20549;50.042;8.968;2023-05-07T11:04:16;29.70;45.20
30999;DHT22;20549;50.042;8.968;2023-05-07T11:06:56;29.70;45.30
30999;DHT22;20549;50.042;8.968;2023-05-07T11:09:09;29.60;45.50
30999;DHT22;20549;50.042;8.968;2023-05-07T11:11:45;29.70;45.50
30999;DHT22;20549;50.042;8.968;2023-05-07T11:14:11;29.70;45.50
30999;DHT22;20549;50.042;8.968;2023-05-07T11:16:38;29.70;45.50
30999;DHT22;20549;50.042;8.968;2023-05-07T11:19:04;29.90;45.70
30999;DHT22;20549;50.042;8.968;2023-05-07T11:21:40;30.00;45.60
30999;DHT22;20549;50.042;8.968;2023-05-07T11:24:10;30.10;45.40
30999;DHT22;20549;50.042;8.968;2023-05-07T11:26:48;30.20;45.10
30999;DHT22;20549;50.042;8.968;2023-05-07T11:29:16;30.30;44.70
30999;DHT22;20549;50.042;8.968;2023-05-07T11:31:41;30.50;44.60
30999;DHT22;20549;50.042;8.968;2023-05-07T11:34:08;30.50;44.10
30999;DHT22;20549;50.042;8.968;2023-05-07T11:36:34;30.60;44.20
30999;DHT22;20549;50.042;8.968;2023-05-07T11:39:01;30.60;44.20
30999;DHT22;20549;50.042;8.968;2023-05-07T11:41:34;30.60;44.10
30999;DHT22;20549;50.042;8.968;2023-05-07T11:44:00;30.60;43.60
30999;DHT22;20549;50.042;8.968;2023-05-07T11:46:27;30.70;43.30
30999;DHT22;20549;50.042;8.968;2023-05-07T11:48:54;30.60;43.00
30999;DHT22;20549;50.042;8.968;2023-05-07T11:51:20;30.60;42.70
30999;DHT22;20549;50.042;8.968;2023-05-07T11:53:46;30.50;42.80
30999;DHT22;20549;50.042;8.968;2023-05-07T11:56:14;30.40;42.40
30999;DHT22;20549;50.042;8.968;2023-05-07T11:58:40;30.40;42.40
30999;DHT22;20549;50.042;8.968;2023-05-07T12:01:09;30.30;42.50
30999;DHT22;20549;50.042;8.968;2023-05-07T12:03:36;30.20;42.60
30999;DHT22;20549;50.042;8.968;2023-05-07T12:06:02;30.30;42.90
30999;DHT22;20549;50.042;8.968;2023-05-07T12:08:29;30.20;42.90
30999;DHT22;20549;50.042;8.968;2023-05-07T12:10:55;30.30;42.70
30999;DHT22;20549;50.042;8.968;2023-05-07T12:13:22;30.30;42.70
30999;DHT22;20549;50.042;8.968;2023-05-07T12:15:52;30.40;42.90
30999;DHT22;20549;50.042;8.968;2023-05-07T12:18:18;30.40;42.60
30999;DHT22;20549;50.042;8.968;2023-05-07T12:20:44;30.40;42.50
30999;DHT22;20549;50.042;8.968;2023-05-07T12:23:11;30.40;42.50
30999;DHT22;20549;50.042;8.968;2023-05-07T12:25:38;30.30;42.30
30999;DHT22;20549;50.042;8.968;2023-05-07T12:28:04;30.30;42.30
30999;DHT22;20549;50.042;8.968;2023-05-07T12:30:37;30.20;42.30
30999;DHT22;20549;50.042;8.968;2023-05-07T12:33:04;30.20;42.20
30999;DHT22;20549;50.042;8.968;2023-05-07T12:35:31;30.10;42.20
30999;DHT22;20549;50.042;8.968;2023-05-07T12:37:59;30.00;42.20
30999;DHT22;20549;50.042;8.968;2023-05-07T12:40:23;30.00;42.30
30999;DHT22;20549;50.042;8.968;2023-05-07T12:42:52;29.90;42.20
30999;DHT22;20549;50.042;8.968;2023-05-07T12:45:18;29.90;42.20
30999;DHT22;20549;50.042;8.968;2023-05-07T12:47:44;29.80;41.90
30999;DHT22;20549;50.042;8.968;2023-05-07T12:50:11;29.70;42.00
30999;DHT22;20549;50.042;8.968;2023-05-07T12:52:37;29.70;42.10
30999;DHT22;20549;50.042;8.968;2023-05-07T12:55:07;29.60;42.10
30999;DHT22;20549;50.042;8.968;2023-05-07T12:57:45;29.60;42.20
30999;DHT22;20549;50.042;8.968;2023-05-07T13:00:09;29.60;42.10
30999;DHT22;20549;50.042;8.968;2023-05-07T13:02:39;29.50;41.80
30999;DHT22;20549;50.042;8.968;2023-05-07T13:05:05;29.50;41.80
30999;DHT22;20549;50.042;8.968;2023-05-07T13:07:31;29.50;41.90
30999;DHT22;20549;50.042;8.968;2023-05-07T13:09:58;29.40;41.70
30999;DHT22;20549;50.042;8.968;2023-05-07T13:12:25;29.40;41.70
30999;DHT22;20549;50.042;8.968;2023-05-07T13:14:51;29.30;41.60
30999;DHT22;20549;50.042;8.968;2023-05-07T13:17:18;29.20;41.60
30999;DHT22;20549;50.042;8.968;2023-05-07T13:19:44;29.10;41.60
30999;DHT22;20549;50.042;8.968;2023-05-07T13:22:11;29.10;41.70
30999;DHT22;20549;50.042;8.968;2023-05-07T13:24:38;29.00;41.80
30999;DHT22;20549;50.042;8.968;2023-05-07T13:27:04;29.00;41.30
30999;DHT22;20549;50.042;8.968;2023-05-07T13:29:31;29.00;42.10
30999;DHT22;20549;50.042;8.968;2023-05-07T13:31:57;29.00;42.00
30999;DHT22;20549;50.042;8.968;2023-05-07T13:34:24;29.10;41.90
30999;DHT22;20549;50.042;8.968;2023-05-07T13:36:50;29.10;41.80
30999;DHT22;20549;50.042;8.968;2023-05-07T13:39:17;29.20;41.80
30999;DHT22;20549;50.042;8.968;2023-05-07T13:41:44;29.20;41.60
30999;DHT22;20549;50.042;8.968;2023-05-07T13:44:10;29.30;41.50
30999;DHT22;20549;50.042;8.968;2023-05-07T13:46:37;29.40;41.40
30999;DHT22;20549;50.042;8.968;2023-05-07T13:49:03;29.40;41.40
30999;DHT22;20549;50.042;8.968;2023-05-07T13:51:30;29.50;41.40
30999;DHT22;20549;50.042;8.968;2023-05-07T13:53:57;29.60;41.50
30999;DHT22;20549;50.042;8.968;2023-05-07T13:56:23;29.60;41.40
30999;DHT22;20549;50.042;8.968;2023-05-07T13:58:50;29.70;41.20
30999;DHT22;20549;50.042;8.968;2023-05-07T14:01:16;29.80;41.20
30999;DHT22;20549;50.042;8.968;2023-05-07T14:03:43;29.80;41.30
30999;DHT22;20549;50.042;8.968;2023-05-07T14:06:10;29.90;41.30
30999;DHT22;20549;50.042;8.968;2023-05-07T14:08:36;30.00;41.00
30999;DHT22;20549;50.042;8.968;2023-05-07T14:11:03;30.20;40.80
30999;DHT22;20549;50.042;8.968;2023-05-07T14:13:29;30.20;40.70
30999;DHT22;20549;50.042;8.968;2023-05-07T14:15:56;30.20;40.60
30999;DHT22;20549;50.042;8.968;2023-05-07T14:18:22;30.30;40.60
30999;DHT22;20549;50.042;8.968;2023-05-07T14:20:49;30.30;40.80
30999;DHT22;20549;50.042;8.968;2023-05-07T14:23:16;30.30;41.00
30999;DHT22;20549;50.042;8.968;2023-05-07T14:25:42;30.30;41.00
30999;DHT22;20549;50.042;8.968;2023-05-07T14:28:09;30.30;40.80
30999;DHT22;20549;50.042;8.968;2023-05-07T14:30:35;30.30;40.90
30999;DHT22;20549;50.042;8.968;2023-05-07T14:33:02;30.20;40.60
30999;DHT22;20549;50.042;8.968;2023-05-07T14:35:29;30.20;40.50
30999;DHT22;20549;50.042;8.968;2023-05-07T14:37:55;30.10;40.40
30999;DHT22;20549;50.042;8.968;2023-05-07T14:40:22;30.00;40.30
30999;DHT22;20549;50.042;8.968;2023-05-07T14:42:48;30.00;40.30
30999;DHT22;20549;50.042;8.968;2023-05-07T14:45:15;29.90;40.30
30999;DHT22;20549;50.042;8.968;2023-05-07T14:47:42;29.80;40.20
30999;DHT22;20549;50.042;8.968;2023-05-07T14:50:08;29.70;40.10
30999;DHT22;20549;50.042;8.968;2023-05-07T14:52:35;29.70;40.20
30999;DHT22;20549;50.042;8.968;2023-05-07T14:55:01;29.60;40.10
30999;DHT22;20549;50.042;8.968;2023-05-07T14:57:28;29.50;40.10
30999;DHT22;20549;50.042;8.968;2023-05-07T14:59:54;29.40;40.10
30999;DHT22;20549;50.042;8.968;2023-05-07T15:02:21;29.40;40.30
30999;DHT22;20549;50.042;8.968;2023-05-07T15:04:48;29.20;40.10
30999;DHT22;20549;50.042;8.968;2023-05-07T15:07:14;29.20;40.30
30999;DHT22;20549;50.042;8.968;2023-05-07T15:09:44;29.10;40.40
30999;DHT22;20549;50.042;8.968;2023-05-07T15:12:10;29.10;40.30
30999;DHT22;20549;50.042;8.968;2023-05-07T15:14:39;29.10;40.30
30999;DHT22;20549;50.042;8.968;2023-05-07T15:17:06;29.00;40.20
30999;DHT22;20549;50.042;8.968;2023-05-07T15:19:33;29.00;40.20
30999;DHT22;20549;50.042;8.968;2023-05-07T15:21:59;28.90;40.10
30999;DHT22;20549;50.042;8.968;2023-05-07T15:24:26;28.90;40.10
30999;DHT22;20549;50.042;8.968;2023-05-07T15:26:52;28.80;40.10
30999;DHT22;20549;50.042;8.968;2023-05-07T15:29:19;28.70;40.20
30999;DHT22;20549;50.042;8.968;2023-05-07T15:31:46;28.50;40.40
30999;DHT22;20549;50.042;8.968;2023-05-07T15:34:12;28.40;40.40
30999;DHT22;20549;50.042;8.968;2023-05-07T15:36:39;28.30;39.90